sensor_id;sensor_type;location;lat;lon;timestamp;temperature;humidity
24232;DHT22;12364;47.810;8.810;2023-05-08T03:47:30;18.30;99.90
24232;DHT22;12364;47.810;8.810;2023-05-08T03:49:57;18.40;99.90
24232;DHT22;12364;47.810;8.810;2023-05-08T03:52:26;18.30;99.90
24232;DHT22;12364;47.810;8.810;2023-05-08T03:54:53;18.40;99.90
24232;DHT22;12364;47.810;8.810;2023-05-08T03:57:20;18.30;99.90
24232;DHT22;12364;47.810;8.810;2023-05-08T04:07:49;18.30;99.90
24232;DHT22;12364;47.810;8.810;2023-05-08T04:15:28;18.20;99.90
24232;DHT22;12364;47.810;8.810;2023-05-08T04:17:56;18.20;99.90
24232;DHT22;12364;47.810;8.810;2023-05-08T04:20:25;18.20;99.90
24232;DHT22;12364;47.810;8.810;2023-05-08T04:22:53;18.30;99.90
24232;DHT22;12364;47.810;8.810;2023-05-08T04:25:20;18.20;99.90
24232;DHT22;12364;47.810;8.810;2023-05-08T04:27:47;18.30;99.90
24232;DHT22;12364;47.810;8.810;2023-05-08T04:30:17;18.40;99.90
24232;DHT22;12364;47.810;8.810;2023-05-08T04:32:44;18.20;99.90
24232;DHT22;12364;47.810;8.810;2023-05-08T04:35:12;18.30;99.90
24232;DHT22;12364;47.810;8.810;2023-05-08T04:37:40;18.20;99.90
24232;DHT22;12364;47.810;8.810;2023-05-08T04:40:08;18.30;99.90
24232;DHT22;12364;47.810;8.810;2023-05-08T04:42:36;18.30;99.90
24232;DHT22;12364;47.810;8.810;2023-05-08T04:45:05;18.40;99.90
24232;DHT22;12364;47.810;8.810;2023-05-08T04:47:32;18.30;99.90
24232;DHT22;12364;47.810;8.810;2023-05-08T04:49:59;18.40;99.90
24232;DHT22;12364;47.810;8.810;2023-05-08T04:52:29;18.40;99.90
24232;DHT22;12364;47.810;8.810;2023-05-08T04:54:56;18.50;99.90
24232;DHT22;12364;47.810;8.810;2023-05-08T04:57:23;18.40;99.90
24232;DHT22;12364;47.810;8.810;2023-05-08T04:59:49;18.50;99.90
24232;DHT22;12364;47.810;8.810;2023-05-08T05:02:17;18.30;99.90
24232;DHT22;12364;47.810;8.810;2023-05-08T05:04:44;18.40;99.90
24232;DHT22;12364;47.810;8.810;2023-05-08T05:07:11;18.40;99.90
24232;DHT22;12364;47.810;8.810;2023-05-08T05:09:38;18.40;99.90
24232;DHT22;12364;47.810;8.810;2023-05-08T05:12:05;18.40;99.90
24232;DHT22;12364;47.810;8.810;2023-05-08T05:14:33;18.40;99.90
24232;DHT22;12364;47.810;8.810;2023-05-08T05:17:00;18.40;99.90
24232;DHT22;12364;47.810;8.810;2023-05-08T05:19:27;18.50;99.90
24232;DHT22;12364;47.810;8.810;2023-05-08T05:21:54;18.40;99.90
24232;DHT22;12364;47.810;8.810;2023-05-08T05:24:20;18.40;99.90
24232;DHT22;12364;47.810;8.810;2023-05-08T05:26:47;18.40;99.90
24232;DHT22;12364;47.810;8.810;2023-05-08T05:29:14;18.50;99.90
24232;DHT22;12364;47.810;8.810;2023-05-08T05:31:41;18.40;99.90
24232;DHT22;12364;47.810;8.810;2023-05-08T05:34:08;18.40;99.90
24232;DHT22;12364;47.810;8.810;2023-05-08T05:36:35;18.40;99.90
24232;DHT22;12364;47.810;8.810;2023-05-08T05:39:02;18.50;99.90
24232;DHT22;12364;47.810;8.810;2023-05-08T05:41:29;18.50;99.90
24232;DHT22;12364;47.810;8.810;2023-05-08T05:43:56;18.50;99.90
24232;DHT22;12364;47.810;8.810;2023-05-08T05:46:23;18.50;99.90
24232;DHT22;12364;47.810;8.810;2023-05-08T05:48:57;18.40;99.90
24232;DHT22;12364;47.810;8.810;2023-05-08T05:51:24;18.40;99.90
24232;DHT22;12364;47.810;8.810;2023-05-08T05:53:51;18.50;99.90
24232;DHT22;12364;47.810;8.810;2023-05-08T05:56:18;18.50;99.90
24232;DHT22;12364;47.810;8.810;2023-05-08T05:58:45;18.50;99.90
24232;DHT22;12364;47.810;8.810;2023-05-08T06:01:12;18.40;99.90
24232;DHT22;12364;47.810;8.810;2023-05-08T06:03:39;18.40;99.90
24232;DHT22;12364;47.810;8.810;2023-05-08T06:06:06;18.40;99.90
24232;DHT22;12364;47.810;8.810;2023-05-08T06:08:33;18.40;99.90
24232;DHT22;12364;47.810;8.810;2023-05-08T06:11:00;18.30;99.90
24232;DHT22;12364;47.810;8.810;2023-05-08T06:13:28;18.50;99.90
24232;DHT22;12364;47.810;8.810;2023-05-08T06:15:55;18.40;99.90
24232;DHT22;12364;47.810;8.810;2023-05-08T06:18:24;18.40;99.90
24232;DHT22;12364;47.810;8.810;2023-05-08T06:20:55;18.50;99.90
24232;DHT22;12364;47.810;8.810;2023-05-08T06:23:22;18.50;99.90
24232;DHT22;12364;47.810;8.810;2023-05-08T06:25:49;18.50;99.90
24232;DHT22;12364;47.810;8.810;2023-05-08T06:28:16;18.50;99.90
24232;DHT22;12364;47.810;8.810;2023-05-08T06:30:44;18.60;99.90
24232;DHT22;12364;47.810;8.810;2023-05-08T06:33:11;18.60;99.90
24232;DHT22;12364;47.810;8.810;2023-05-08T06:35:38;18.60;99.90
24232;DHT22;12364;47.810;8.810;2023-05-08T06:38:05;18.60;99.90
24232;DHT22;12364;47.810;8.810;2023-05-08T06:40:32;18.60;99.90
24232;DHT22;12364;47.810;8.810;2023-05-08T06:42:59;18.60;99.90
24232;DHT22;12364;47.810;8.810;2023-05-08T06:45:26;18.60;99.90
24232;DHT22;12364;47.810;8.810;2023-05-08T06:47:53;18.70;99.90
24232;DHT22;12364;47.810;8.810;2023-05-08T06:50:20;18.70;99.90
24232;DHT22;12364;47.810;8.810;2023-05-08T06:52:47;18.70;99.90
24232;DHT22;12364;47.810;8.810;2023-05-08T06:55:14;18.80;99.90
24232;DHT22;12364;47.810;8.810;2023-05-08T06:57:41;18.80;99.90
24232;DHT22;12364;47.810;8.810;2023-05-08T07:00:08;18.80;99.90
24232;DHT22;12364;47.810;8.810;2023-05-08T07:02:35;18.80;99.90
24232;DHT22;12364;47.810;8.810;2023-05-08T07:05:03;18.90;99.90
24232;DHT22;12364;47.810;8.810;2023-05-08T07:07:30;18.90;99.90
24232;DHT22;12364;47.810;8.810;2023-05-08T07:09:57;18.90;99.90
24232;DHT22;12364;47.810;8.810;2023-05-08T07:12:24;18.90;99.90
24232;DHT22;12364;47.810;8.810;2023-05-08T07:14:51;18.90;99.90
24232;DHT22;12364;47.810;8.810;2023-05-08T07:17:18;18.90;99.90
24232;DHT22;12364;47.810;8.810;2023-05-08T07:19:48;18.90;99.90
24232;DHT22;12364;47.810;8.810;2023-05-08T07:22:15;19.00;99.90
24232;DHT22;12364;47.810;8.810;2023-05-08T07:24:42;18.90;99.90
24232;DHT22;12364;47.810;8.810;2023-05-08T07:27:09;19.00;99.90
24232;DHT22;12364;47.810;8.810;2023-05-08T07:29:36;18.90;99.90
24232;DHT22;12364;47.810;8.810;2023-05-08T07:32:05;19.00;99.90
24232;DHT22;12364;47.810;8.810;2023-05-08T07:34:32;19.00;99.90
24232;DHT22;12364;47.810;8.810;2023-05-08T07:37:00;18.90;99.90
24232;DHT22;12364;47.810;8.810;2023-05-08T07:39:28;19.00;99.90
24232;DHT22;12364;47.810;8.810;2023-05-08T07:41:55;19.00;99.90
24232;DHT22;12364;47.810;8.810;2023-05-08T07:44:22;19.00;99.90
24232;DHT22;12364;47.810;8.810;2023-05-08T07:46:49;19.00;99.90
24232;DHT22;12364;47.810;8.810;2023-05-08T07:49:16;19.00;99.90
24232;DHT22;12364;47.810;8.810;2023-05-08T07:51:43;19.10;99.90
24232;DHT22;12364;47.810;8.810;2023-05-08T07:54:10;19.00;99.90
24232;DHT22;12364;47.810;8.810;2023-05-08T07:56:37;19.10;99.90
24232;DHT22;12364;47.810;8.810;2023-05-08T07:59:04;19.10;99.90
24232;DHT22;12364;47.810;8.810;2023-05-08T08:01:31;19.20;99.90
24232;DHT22;12364;47.810;8.810;2023-05-08T08:03:58;19.20;99.90
24232;DHT22;12364;47.810;8.810;2023-05-08T08:06:25;19.30;99.90
24232;DHT22;12364;47.810;8.810;2023-05-08T08:08:52;19.30;99.90
24232;DHT22;12364;47.810;8.810;2023-05-08T08:11:19;19.30;99.90
24232;DHT22;12364;47.810;8.810;2023-05-08T08:13:46;19.30;99.90
24232;DHT22;12364;47.810;8.810;2023-05-08T08:16:13;19.30;99.90
24232;DHT22;12364;47.810;8.810;2023-05-08T08:18:40;19.30;99.90
24232;DHT22;12364;47.810;8.810;2023-05-08T08:21:07;19.30;99.90
24232;DHT22;12364;47.810;8.810;2023-05-08T08:23:34;19.40;99.90
24232;DHT22;12364;47.810;8.810;2023-05-08T08:26:01;19.40;99.90
24232;DHT22;12364;47.810;8.810;2023-05-08T08:28:28;19.40;99.90
24232;DHT22;12364;47.810;8.810;2023-05-08T08:30:55;19.40;99.90
24232;DHT22;12364;47.810;8.810;2023-05-08T08:33:22;19.40;99.90
24232;DHT22;12364;47.810;8.810;2023-05-08T08:35:49;19.50;99.90
24232;DHT22;12364;47.810;8.810;2023-05-08T08:38:16;19.50;99.90
24232;DHT22;12364;47.810;8.810;2023-05-08T08:40:43;19.60;99.90
24232;DHT22;12364;47.810;8.810;2023-05-08T08:43:10;19.60;99.90
24232;DHT22;12364;47.810;8.810;2023-05-08T08:45:37;19.60;99.90
24232;DHT22;12364;47.810;8.810;2023-05-08T08:48:04;19.70;99.90
24232;DHT22;12364;47.810;8.810;2023-05-08T08:50:31;19.70;99.90
24232;DHT22;12364;47.810;8.810;2023-05-08T08:55:28;19.80;99.90
24232;DHT22;12364;47.810;8.810;2023-05-08T09:00:29;19.90;99.90
24232;DHT22;12364;47.810;8.810;2023-05-08T09:02:57;19.90;99.90
24232;DHT22;12364;47.810;8.810;2023-05-08T09:05:25;19.90;99.90
24232;DHT22;12364;47.810;8.810;2023-05-08T09:07:55;19.90;99.90
24232;DHT22;12364;47.810;8.810;2023-05-08T09:10:22;20.00;99.90
24232;DHT22;12364;47.810;8.810;2023-05-08T09:12:50;20.00;99.90
24232;DHT22;12364;47.810;8.810;2023-05-08T09:15:17;20.10;99.90
24232;DHT22;12364;47.810;8.810;2023-05-08T09:17:44;20.10;99.90
24232;DHT22;12364;47.810;8.810;2023-05-08T09:20:12;20.10;99.90
24232;DHT22;12364;47.810;8.810;2023-05-08T09:22:40;20.20;99.90
24232;DHT22;12364;47.810;8.810;2023-05-08T09:25:08;20.20;99.90
24232;DHT22;12364;47.810;8.810;2023-05-08T09:27:35;20.20;99.90
24232;DHT22;12364;47.810;8.810;2023-05-08T09:32:30;20.30;99.90
24232;DHT22;12364;47.810;8.810;2023-05-08T09:34:57;20.30;99.90
24232;DHT22;12364;47.810;8.810;2023-05-08T09:37:25;20.40;99.90
24232;DHT22;12364;47.810;8.810;2023-05-08T09:39:52;20.50;99.90
24232;DHT22;12364;47.810;8.810;2023-05-08T09:42:20;20.50;99.90
24232;DHT22;12364;47.810;8.810;2023-05-08T09:44:50;20.60;99.90
24232;DHT22;12364;47.810;8.810;2023-05-08T09:49:58;20.50;99.90
24232;DHT22;12364;47.810;8.810;2023-05-08T09:52:27;20.50;99.90
24232;DHT22;12364;47.810;8.810;2023-05-08T09:55:01;20.50;99.90
24232;DHT22;12364;47.810;8.810;2023-05-08T09:57:29;20.50;99.90
24232;DHT22;12364;47.810;8.810;2023-05-08T10:00:09;20.70;99.90
24232;DHT22;12364;47.810;8.810;2023-05-08T10:02:39;20.50;99.90
24232;DHT22;12364;47.810;8.810;2023-05-08T10:07:53;20.60;99.90
24232;DHT22;12364;47.810;8.810;2023-05-08T10:10:26;20.50;99.90
24232;DHT22;12364;47.810;8.810;2023-05-08T10:12:54;20.50;99.90
24232;DHT22;12364;47.810;8.810;2023-05-08T10:15:22;20.50;99.90
24232;DHT22;12364;47.810;8.810;2023-05-08T10:17:52;20.50;99.90
24232;DHT22;12364;47.810;8.810;2023-05-08T10:20:20;20.50;99.90
24232;DHT22;12364;47.810;8.810;2023-05-08T10:22:48;20.60;99.90
24232;DHT22;12364;47.810;8.810;2023-05-08T10:25:15;20.60;99.90
24232;DHT22;12364;47.810;8.810;2023-05-08T10:27:53;20.60;99.90
24232;DHT22;12364;47.810;8.810;2023-05-08T10:30:22;20.60;99.90
24232;DHT22;12364;47.810;8.810;2023-05-08T10:32:50;20.60;99.90
24232;DHT22;12364;47.810;8.810;2023-05-08T10:35:20;20.60;99.90
24232;DHT22;12364;47.810;8.810;2023-05-08T10:37:47;20.60;99.90
24232;DHT22;12364;47.810;8.810;2023-05-08T10:40:14;20.60;99.90
24232;DHT22;12364;47.810;8.810;2023-05-08T10:42:42;20.60;99.90
24232;DHT22;12364;47.810;8.810;2023-05-08T10:45:09;20.60;99.90
24232;DHT22;12364;47.810;8.810;2023-05-08T10:50:26;20.70;99.90
24232;DHT22;12364;47.810;8.810;2023-05-08T10:53:02;20.80;99.90
24232;DHT22;12364;47.810;8.810;2023-05-08T10:55:32;20.80;99.90
24232;DHT22;12364;47.810;8.810;2023-05-08T11:00:32;20.90;99.90
24232;DHT22;12364;47.810;8.810;2023-05-08T11:03:19;20.90;99.90
24232;DHT22;12364;47.810;8.810;2023-05-08T11:05:58;21.00;99.90
24232;DHT22;12364;47.810;8.810;2023-05-08T11:08:26;21.00;99.90
24232;DHT22;12364;47.810;8.810;2023-05-08T11:16:00;21.10;99.90
24232;DHT22;12364;47.810;8.810;2023-05-08T11:18:28;21.20;99.90
24232;DHT22;12364;47.810;8.810;2023-05-08T11:21:15;21.30;99.90
24232;DHT22;12364;47.810;8.810;2023-05-08T11:23:50;21.40;99.90
24232;DHT22;12364;47.810;8.810;2023-05-08T11:26:21;21.40;99.90
24232;DHT22;12364;47.810;8.810;2023-05-08T11:29:07;21.40;99.70
24232;DHT22;12364;47.810;8.810;2023-05-08T11:31:51;21.40;99.90
24232;DHT22;12364;47.810;8.810;2023-05-08T11:37:07;21.50;99.40
24232;DHT22;12364;47.810;8.810;2023-05-08T11:39:34;21.50;99.10
24232;DHT22;12364;47.810;8.810;2023-05-08T11:44:47;21.40;99.20
24232;DHT22;12364;47.810;8.810;2023-05-08T11:47:15;21.40;99.60
24232;DHT22;12364;47.810;8.810;2023-05-08T11:49:44;21.40;98.20
24232;DHT22;12364;47.810;8.810;2023-05-08T11:52:11;21.20;98.50
24232;DHT22;12364;47.810;8.810;2023-05-08T11:54:38;21.20;98.90
24232;DHT22;12364;47.810;8.810;2023-05-08T11:57:05;20.80;99.70
24232;DHT22;12364;47.810;8.810;2023-05-08T11:59:35;20.60;99.90
24232;DHT22;12364;47.810;8.810;2023-05-08T12:02:03;20.40;99.90
24232;DHT22;12364;47.810;8.810;2023-05-08T12:04:41;20.20;99.90
24232;DHT22;12364;47.810;8.810;2023-05-08T12:07:09;19.90;99.90
24232;DHT22;12364;47.810;8.810;2023-05-08T12:09:36;19.70;99.90
24232;DHT22;12364;47.810;8.810;2023-05-08T12:12:04;19.30;99.90
24232;DHT22;12364;47.810;8.810;2023-05-08T12:14:31;19.20;99.90
24232;DHT22;12364;47.810;8.810;2023-05-08T12:17:00;19.20;99.90
24232;DHT22;12364;47.810;8.810;2023-05-08T12:19:28;19.20;99.90
24232;DHT22;12364;47.810;8.810;2023-05-08T12:21:55;19.10;99.90
24232;DHT22;12364;47.810;8.810;2023-05-08T12:24:23;19.00;99.90
24232;DHT22;12364;47.810;8.810;2023-05-08T12:26:54;19.00;99.90
24232;DHT22;12364;47.810;8.810;2023-05-08T12:29:22;18.90;99.90
24232;DHT22;12364;47.810;8.810;2023-05-08T12:31:50;19.00;99.90
24232;DHT22;12364;47.810;8.810;2023-05-08T12:34:18;19.00;99.90
24232;DHT22;12364;47.810;8.810;2023-05-08T12:36:46;18.90;99.90
24232;DHT22;12364;47.810;8.810;2023-05-08T12:39:14;19.00;99.90
24232;DHT22;12364;47.810;8.810;2023-05-08T12:41:41;18.90;99.90
24232;DHT22;12364;47.810;8.810;2023-05-08T12:44:18;18.90;99.90
24232;DHT22;12364;47.810;8.810;2023-05-08T12:46:46;18.90;99.90
24232;DHT22;12364;47.810;8.810;2023-05-08T12:49:13;19.00;99.90
24232;DHT22;12364;47.810;8.810;2023-05-08T12:51:44;19.00;99.90
24232;DHT22;12364;47.810;8.810;2023-05-08T12:54:11;19.20;99.90
24232;DHT22;12364;47.810;8.810;2023-05-08T12:56:41;19.00;99.90
24232;DHT22;12364;47.810;8.810;2023-05-08T12:59:09;19.00;99.90
24232;DHT22;12364;47.810;8.810;2023-05-08T13:01:36;19.10;99.90
24232;DHT22;12364;47.810;8.810;2023-05-08T13:04:06;19.00;99.90
24232;DHT22;12364;47.810;8.810;2023-05-08T13:06:33;18.90;99.90
24232;DHT22;12364;47.810;8.810;2023-05-08T13:09:00;18.90;99.90
24232;DHT22;12364;47.810;8.810;2023-05-08T13:11:28;18.90;99.90
24232;DHT22;12364;47.810;8.810;2023-05-08T13:13:56;18.90;99.90
24232;DHT22;12364;47.810;8.810;2023-05-08T13:16:23;18.90;99.90
24232;DHT22;12364;47.810;8.810;2023-05-08T13:18:50;18.90;99.90
24232;DHT22;12364;47.810;8.810;2023-05-08T13:21:16;18.90;99.90
24232;DHT22;12364;47.810;8.810;2023-05-08T13:23:43;19.00;99.90
24232;DHT22;12364;47.810;8.810;2023-05-08T13:26:10;18.90;99.90
24232;DHT22;12364;47.810;8.810;2023-05-08T13:28:37;18.80;99.90
24232;DHT22;12364;47.810;8.810;2023-05-08T13:31:04;18.80;99.90
24232;DHT22;12364;47.810;8.810;2023-05-08T13:33:31;19.00;99.90
24232;DHT22;12364;47.810;8.810;2023-05-08T13:35:58;18.80;99.90
24232;DHT22;12364;47.810;8.810;2023-05-08T13:38:25;18.80;99.90
24232;DHT22;12364;47.810;8.810;2023-05-08T13:40:52;18.90;99.90
24232;DHT22;12364;47.810;8.810;2023-05-08T13:43:19;18.80;99.90
24232;DHT22;12364;47.810;8.810;2023-05-08T13:45:46;18.90;99.90
24232;DHT22;12364;47.810;8.810;2023-05-08T13:48:13;18.90;99.90
24232;DHT22;12364;47.810;8.810;2023-05-08T13:50:40;19.00;99.90
24232;DHT22;12364;47.810;8.810;2023-05-08T13:53:07;19.00;99.90
24232;DHT22;12364;47.810;8.810;2023-05-08T13:55:35;19.10;99.90
24232;DHT22;12364;47.810;8.810;2023-05-08T13:58:02;19.20;99.90
24232;DHT22;12364;47.810;8.810;2023-05-08T14:00:29;19.20;99.90
24232;DHT22;12364;47.810;8.810;2023-05-08T14:02:56;19.30;99.90
24232;DHT22;12364;47.810;8.810;2023-05-08T14:05:23;19.30;99.90
24232;DHT22;12364;47.810;8.810;2023-05-08T14:07:50;19.30;99.90
24232;DHT22;12364;47.810;8.810;2023-05-08T14:10:17;19.30;99.90
24232;DHT22;12364;47.810;8.810;2023-05-08T14:12:44;19.30;99.90
24232;DHT22;12364;47.810;8.810;2023-05-08T14:15:12;19.40;99.90
24232;DHT22;12364;47.810;8.810;2023-05-08T14:17:39;19.50;99.90
24232;DHT22;12364;47.810;8.810;2023-05-08T14:20:08;19.40;99.90
24232;DHT22;12364;47.810;8.810;2023-05-08T14:22:38;19.40;99.90
24232;DHT22;12364;47.810;8.810;2023-05-08T14:25:05;19.40;99.90
24232;DHT22;12364;47.810;8.810;2023-05-08T14:27:32;19.40;99.90
24232;DHT22;12364;47.810;8.810;2023-05-08T14:29:59;19.40;99.90
24232;DHT22;12364;47.810;8.810;2023-05-08T14:32:26;19.50;99.90
24232;DHT22;12364;47.810;8.810;2023-05-08T14:34:54;19.50;99.90
24232;DHT22;12364;47.810;8.810;2023-05-08T14:37:21;19.50;99.90
24232;DHT22;12364;47.810;8.810;2023-05-08T14:39:48;19.50;99.90
24232;DHT22;12364;47.810;8.810;2023-05-08T14:42:16;19.60;99.90
24232;DHT22;12364;47.810;8.810;2023-05-08T14:44:49;19.60;99.90
24232;DHT22;12364;47.810;8.810;2023-05-08T14:47:16;19.70;99.90
24232;DHT22;12364;47.810;8.810;2023-05-08T14:49:43;19.70;99.90
24232;DHT22;12364;47.810;8.810;2023-05-08T14:52:10;19.80;99.90
24232;DHT22;12364;47.810;8.810;2023-05-08T14:54:37;19.80;99.90
24232;DHT22;12364;47.810;8.810;2023-05-08T14:57:05;19.90;99.90
24232;DHT22;12364;47.810;8.810;2023-05-08T14:59:32;19.90;99.90
24232;DHT22;12364;47.810;8.810;2023-05-08T15:01:59;20.00;99.90
24232;DHT22;12364;47.810;8.810;2023-05-08T15:04:26;20.00;99.90
24232;DHT22;12364;47.810;8.810;2023-05-08T15:06:53;20.00;99.90
24232;DHT22;12364;47.810;8.810;2023-05-08T15:09:20;20.10;99.90
24232;DHT22;12364;47.810;8.810;2023-05-08T15:11:47;20.10;99.90
24232;DHT22;12364;47.810;8.810;2023-05-08T15:14:14;20.20;99.90
24232;DHT22;12364;47.810;8.810;2023-05-08T15:16:41;20.20;99.90
24232;DHT22;12364;47.810;8.810;2023-05-08T15:19:08;20.20;99.90
24232;DHT22;12364;47.810;8.810;2023-05-08T15:21:35;20.20;99.90
24232;DHT22;12364;47.810;8.810;2023-05-08T15:24:02;20.20;99.90
24232;DHT22;12364;47.810;8.810;2023-05-08T15:26:29;20.30;99.90
24232;DHT22;12364;47.810;8.810;2023-05-08T15:28:56;20.30;99.90
24232;DHT22;12364;47.810;8.810;2023-05-08T15:31:23;20.30;99.90
24232;DHT22;12364;47.810;8.810;2023-05-08T15:33:50;20.30;99.90
24232;DHT22;12364;47.810;8.810;2023-05-08T15:36:17;20.40;99.90
24232;DHT22;12364;47.810;8.810;2023-05-08T15:38:44;20.40;99.90
24232;DHT22;12364;47.810;8.810;2023-05-08T15:41:11;20.40;99.90
24232;DHT22;12364;47.810;8.810;2023-05-08T15:43:41;20.40;99.90
24232;DHT22;12364;47.810;8.810;2023-05-08T15:46:09;20.40;99.90
24232;DHT22;12364;47.810;8.810;2023-05-08T15:48:36;20.40;99.90
24232;DHT22;12364;47.810;8.810;2023-05-08T15:51:03;20.40;99.90
24232;DHT22;12364;47.810;8.810;2023-05-08T15:53:31;20.40;99.90
24232;DHT22;12364;47.810;8.810;2023-05-08T15:55:58;20.40;99.90
24232;DHT22;12364;47.810;8.810;2023-05-08T15:58:25;20.40;99.90
24232;DHT22;12364;47.810;8.810;2023-05-08T16:00:53;20.40;99.90
24232;DHT22;12364;47.810;8.810;2023-05-08T16:03:20;20.40;99.90
24232;DHT22;12364;47.810;8.810;2023-05-08T16:05:47;20.40;99.90
24232;DHT22;12364;47.810;8.810;2023-05-08T16:08:14;20.40;99.90
24232;DHT22;12364;47.810;8.810;2023-05-08T16:10:41;20.50;99.90
24232;DHT22;12364;47.810;8.810;2023-05-08T16:13:08;20.40;99.90
24232;DHT22;12364;47.810;8.810;2023-05-08T16:15:35;20.60;99.90
24232;DHT22;12364;47.810;8.810;2023-05-08T16:18:02;20.40;99.90
24232;DHT22;12364;47.810;8.810;2023-05-08T16:20:30;20.40;99.90
24232;DHT22;12364;47.810;8.810;2023-05-08T16:23:00;20.40;99.90
24232;DHT22;12364;47.810;8.810;2023-05-08T16:25:27;20.30;99.90
24232;DHT22;12364;47.810;8.810;2023-05-08T16:27:53;20.30;99.90
24232;DHT22;12364;47.810;8.810;2023-05-08T16:30:20;20.30;99.90
24232;DHT22;12364;47.810;8.810;2023-05-08T16:32:47;20.30;99.90
24232;DHT22;12364;47.810;8.810;2023-05-08T16:35:14;20.30;99.90
24232;DHT22;12364;47.810;8.810;2023-05-08T16:37:42;20.30;99.90
24232;DHT22;12364;47.810;8.810;2023-05-08T16:40:09;20.30;99.90
24232;DHT22;12364;47.810;8.810;2023-05-08T16:42:36;20.20;99.90
24232;DHT22;12364;47.810;8.810;2023-05-08T16:45:03;20.20;99.90
24232;DHT22;12364;47.810;8.810;2023-05-08T16:47:31;20.20;99.90
24232;DHT22;12364;47.810;8.810;2023-05-08T16:49:58;20.20;99.90
24232;DHT22;12364;47.810;8.810;2023-05-08T16:52:26;20.20;99.90
24232;DHT22;12364;47.810;8.810;2023-05-08T16:54:53;20.20;99.90
24232;DHT22;12364;47.810;8.810;2023-05-08T16:57:19;20.30;99.90
24232;DHT22;12364;47.810;8.810;2023-05-08T16:59:46;20.20;99.90
24232;DHT22;12364;47.810;8.810;2023-05-08T17:02:14;20.20;99.90
24232;DHT22;12364;47.810;8.810;2023-05-08T17:04:45;20.20;99.90
24232;DHT22;12364;47.810;8.810;2023-05-08T17:07:15;20.10;99.90
24232;DHT22;12364;47.810;8.810;2023-05-08T17:09:43;20.20;99.90
24232;DHT22;12364;47.810;8.810;2023-05-08T17:12:10;20.20;99.90
24232;DHT22;12364;47.810;8.810;2023-05-08T17:14:37;20.10;99.90
24232;DHT22;12364;47.810;8.810;2023-05-08T17:17:06;20.10;99.90
24232;DHT22;12364;47.810;8.810;2023-05-08T17:19:33;20.10;99.90
24232;DHT22;12364;47.810;8.810;2023-05-08T17:22:00;20.00;99.90
24232;DHT22;12364;47.810;8.810;2023-05-08T17:24:30;20.00;99.90
24232;DHT22;12364;47.810;8.810;2023-05-08T17:26:58;20.00;99.90
24232;DHT22;12364;47.810;8.810;2023-05-08T17:29:25;20.00;99.90
24232;DHT22;12364;47.810;8.810;2023-05-08T17:31:52;20.00;99.90
24232;DHT22;12364;47.810;8.810;2023-05-08T17:34:19;20.00;99.90
24232;DHT22;12364;47.810;8.810;2023-05-08T17:36:46;20.00;99.90
24232;DHT22;12364;47.810;8.810;2023-05-08T17:39:13;19.90;99.90
24232;DHT22;12364;47.810;8.810;2023-05-08T17:41:40;19.90;99.90
24232;DHT22;12364;47.810;8.810;2023-05-08T17:44:07;20.00;99.90
24232;DHT22;12364;47.810;8.810;2023-05-08T17:46:35;19.90;99.90
24232;DHT22;12364;47.810;8.810;2023-05-08T17:49:02;19.90;99.90
24232;DHT22;12364;47.810;8.810;2023-05-08T17:51:29;19.90;99.90
24232;DHT22;12364;47.810;8.810;2023-05-08T17:53:57;19.90;99.90
24232;DHT22;12364;47.810;8.810;2023-05-08T17:56:24;19.90;99.90
24232;DHT22;12364;47.810;8.810;2023-05-08T17:58:51;19.80;99.90
24232;DHT22;12364;47.810;8.810;2023-05-08T18:01:18;19.80;99.90
24232;DHT22;12364;47.810;8.810;2023-05-08T18:03:46;19.80;99.90
24232;DHT22;12364;47.810;8.810;2023-05-08T18:06:16;19.70;99.90
24232;DHT22;12364;47.810;8.810;2023-05-08T18:08:43;19.70;99.90
24232;DHT22;12364;47.810;8.810;2023-05-08T18:11:20;19.70;99.90
24232;DHT22;12364;47.810;8.810;2023-05-08T18:13:48;19.60;99.90
24232;DHT22;12364;47.810;8.810;2023-05-08T18:16:16;19.60;99.90
24232;DHT22;12364;47.810;8.810;2023-05-08T18:18:43;19.60;99.90
24232;DHT22;12364;47.810;8.810;2023-05-08T18:21:10;19.60;99.90
24232;DHT22;12364;47.810;8.810;2023-05-08T18:23:38;19.60;99.90
24232;DHT22;12364;47.810;8.810;2023-05-08T18:26:05;19.60;99.90
24232;DHT22;12364;47.810;8.810;2023-05-08T18:28:32;19.60;99.90
24232;DHT22;12364;47.810;8.810;2023-05-08T18:30:59;19.50;99.90
24232;DHT22;12364;47.810;8.810;2023-05-08T18:33:26;19.50;99.90
24232;DHT22;12364;47.810;8.810;2023-05-08T18:35:53;19.50;99.90
24232;DHT22;12364;47.810;8.810;2023-05-08T18:38:21;19.60;99.90
24232;DHT22;12364;47.810;8.810;2023-05-08T18:40:48;19.40;99.90
24232;DHT22;12364;47.810;8.810;2023-05-08T18:43:15;19.40;99.90
24232;DHT22;12364;47.810;8.810;2023-05-08T18:45:42;19.40;99.90
24232;DHT22;12364;47.810;8.810;2023-05-08T18:48:09;19.40;99.90
24232;DHT22;12364;47.810;8.810;2023-05-08T18:50:37;19.40;99.90
24232;DHT22;12364;47.810;8.810;2023-05-08T18:53:04;19.40;99.90
24232;DHT22;12364;47.810;8.810;2023-05-08T18:55:32;19.30;99.90
24232;DHT22;12364;47.810;8.810;2023-05-08T18:57:59;19.40;99.90
24232;DHT22;12364;47.810;8.810;2023-05-08T19:00:26;19.30;99.90
24232;DHT22;12364;47.810;8.810;2023-05-08T19:02:53;19.30;99.90
24232;DHT22;12364;47.810;8.810;2023-05-08T19:05:20;19.30;99.90
24232;DHT22;12364;47.810;8.810;2023-05-08T19:07:47;19.20;99.90
24232;DHT22;12364;47.810;8.810;2023-05-08T19:10:14;19.20;99.90
24232;DHT22;12364;47.810;8.810;2023-05-08T19:12:42;19.20;99.90
24232;DHT22;12364;47.810;8.810;2023-05-08T19:15:10;19.20;99.90
24232;DHT22;12364;47.810;8.810;2023-05-08T19:17:39;19.20;99.90
24232;DHT22;12364;47.810;8.810;2023-05-08T19:20:07;19.40;99.90
24232;DHT22;12364;47.810;8.810;2023-05-08T19:22:34;19.20;99.90
24232;DHT22;12364;47.810;8.810;2023-05-08T19:25:02;19.20;99.90
24232;DHT22;12364;47.810;8.810;2023-05-08T19:27:29;19.20;99.90
24232;DHT22;12364;47.810;8.810;2023-05-08T19:29:57;19.20;99.90
24232;DHT22;12364;47.810;8.810;2023-05-08T19:32:24;19.20;99.90
24232;DHT22;12364;47.810;8.810;2023-05-08T19:34:52;19.10;99.90
24232;DHT22;12364;47.810;8.810;2023-05-08T19:37:21;19.10;99.90
24232;DHT22;12364;47.810;8.810;2023-05-08T19:39:47;19.10;99.90
24232;DHT22;12364;47.810;8.810;2023-05-08T19:42:14;19.30;99.90
24232;DHT22;12364;47.810;8.810;2023-05-08T19:44:41;19.10;99.90
24232;DHT22;12364;47.810;8.810;2023-05-08T19:47:08;19.10;99.90
24232;DHT22;12364;47.810;8.810;2023-05-08T19:49:35;19.30;99.90
24232;DHT22;12364;47.810;8.810;2023-05-08T19:52:02;19.10;99.90
24232;DHT22;12364;47.810;8.810;2023-05-08T19:54:29;19.10;99.90
24232;DHT22;12364;47.810;8.810;2023-05-08T19:56:56;19.30;99.90
24232;DHT22;12364;47.810;8.810;2023-05-08T19:59:23;19.00;99.90
24232;DHT22;12364;47.810;8.810;2023-05-08T20:01:50;19.00;99.90